This is the latest recevied weather packets stored in our database for station/object S54A-10. If no packets are shown the sender has not sent any weather packets the latest 1 day(s).
| Time | Temp. | Humidity | Pressure | Rain* | Wind** | Luminosity | Snow |
|---|---|---|---|---|---|---|---|
| 1778086852 | 18.33° C | 62% | 1011.8 hPa | - | - | - | - |
| 1778085952 | 18.33° C | 62% | 1011.8 hPa | - | - | - | - |
| 1778085052 | 18.33° C | 62% | 1011.9 hPa | - | - | - | - |
| 1778077851 | 17.22° C | 68% | 1012.7 hPa | - | - | - | - |
| 1778076951 | 16.67° C | 69% | 1012.7 hPa | - | - | - | - |
| 1778076051 | 16.67° C | 70% | 1012.9 hPa | - | - | - | - |
| 1778074251 | 16.67° C | 69% | 1013.1 hPa | - | - | - | - |
| 1778073351 | 17.22° C | 68% | 1013.2 hPa | - | - | - | - |
| 1778063450 | 16.67° C | 68% | 1014 hPa | - | - | - | - |
| 1778062550 | 16.67° C | 68% | 1013.9 hPa | - | - | - | - |
| 1778061650 | 16.67° C | 68% | 1014.2 hPa | - | - | - | - |
| 1778060750 | 17.78° C | 64% | 1014.2 hPa | - | - | - | - |
| 1778059850 | 18.33° C | 63% | 1014.2 hPa | - | - | - | - |
| 1778053549 | 17.78° C | 64% | 1013.4 hPa | - | - | - | - |
| 1778052649 | 17.78° C | 63% | 1013.5 hPa | - | - | - | - |
| 1778051749 | 17.22° C | 64% | 1013.6 hPa | - | - | - | - |
| 1778050849 | 16.67° C | 65% | 1013.9 hPa | - | - | - | - |
| 1778049949 | 15.56° C | 67% | 1013.9 hPa | - | - | - | - |
| 1778049049 | 15° C | 67% | 1013.9 hPa | - | - | - | - |
| 1778048149 | 15° C | 67% | 1013.7 hPa | - | - | - | - |
| 1778047249 | 15.56° C | 66% | 1013.5 hPa | - | - | - | - |
| 1778042748 | 15.56° C | 65% | 1013.6 hPa | - | - | - | - |
| 1778040948 | 15° C | 67% | 1013.6 hPa | - | - | - | - |
| 1778040048 | 15° C | 66% | 1013.5 hPa | - | - | - | - |
| 1778039148 | 15° C | 66% | 1013.7 hPa | - | - | - | - |
* Rain since midnight (hover to see other rain measurements)
** Current wind speed in m/s (hover to see current wind gust speed)